createdAt,value
2023-09-08T00:03:07.432Z,5.55
2023-09-08T00:08:11.690Z,5.70
2023-09-08T00:13:15.278Z,5.90
2023-09-08T00:18:20.452Z,5.53
2023-09-08T00:23:24.246Z,5.82
2023-09-08T00:28:27.929Z,6.00
2023-09-08T00:33:33.023Z,5.57
2023-09-08T00:38:36.901Z,5.10
2023-09-08T00:43:41.155Z,6.30
2023-09-08T00:48:46.873Z,6.38
2023-09-08T00:53:51.743Z,6.65
2023-09-08T00:58:55.574Z,6.63
2023-09-08T01:04:00.585Z,7.10
2023-09-08T01:09:04.967Z,7.53
2023-09-08T01:14:08.624Z,7.50
2023-09-08T01:19:17.082Z,7.90
2023-09-08T01:24:42.074Z,6.20
2023-09-08T01:29:49.687Z,6.70
2023-09-08T01:34:54.020Z,5.13
2023-09-08T01:39:57.577Z,6.40
2023-09-08T01:45:02.591Z,6.60
2023-09-08T01:50:06.992Z,6.40
2023-09-08T01:55:13.152Z,6.82
2023-09-08T02:00:18.576Z,6.60
2023-09-08T02:05:22.455Z,6.15
2023-09-08T02:10:26.454Z,5.60
2023-09-08T02:15:31.554Z,6.15
2023-09-08T02:20:35.637Z,6.07
2023-09-08T02:25:39.480Z,5.90
2023-09-08T02:30:44.618Z,5.53
2023-09-08T02:35:48.403Z,6.05
2023-09-08T02:40:53.581Z,6.50
2023-09-08T02:45:58.810Z,6.35
2023-09-08T02:51:02.711Z,6.10
2023-09-08T02:56:06.798Z,5.72
2023-09-08T03:01:16.042Z,6.22
2023-09-08T03:06:21.761Z,6.32
2023-09-08T03:11:27.005Z,5.97
2023-09-08T03:16:32.133Z,6.53
2023-09-08T03:21:35.996Z,6.60
2023-09-08T03:26:41.499Z,6.57
2023-09-08T03:31:46.666Z,6.07
2023-09-08T03:36:51.472Z,6.95
2023-09-08T03:41:55.182Z,6.20
2023-09-08T03:47:02.994Z,6.82
2023-09-08T03:52:07.828Z,6.53
2023-09-08T03:57:11.541Z,6.32
2023-09-08T04:02:16.576Z,6.78
2023-09-08T04:07:20.489Z,5.78
2023-09-08T04:12:24.237Z,6.68
2023-09-08T04:17:30.386Z,6.75
2023-09-08T04:22:34.386Z,6.40
2023-09-08T04:27:39.013Z,7.10
2023-09-08T04:32:45.034Z,6.78
2023-09-08T04:37:49.131Z,6.28
2023-09-08T04:42:53.048Z,6.43
2023-09-08T04:47:58.381Z,6.63
2023-09-08T04:53:02.741Z,8.00
2023-09-08T04:58:06.756Z,6.65
2023-09-08T05:03:12.083Z,7.30
2023-09-08T05:08:16.046Z,6.88
2023-09-08T05:13:30.699Z,6.10
2023-09-08T05:18:38.062Z,6.43
2023-09-08T05:23:42.178Z,5.90
2023-09-08T05:28:48.314Z,5.78
2023-09-08T05:33:53.536Z,6.05
2023-09-08T05:38:57.943Z,5.75
2023-09-08T05:44:02.428Z,6.10
2023-09-08T05:49:08.013Z,6.35
2023-09-08T05:54:12.364Z,6.53
2023-09-08T05:59:16.498Z,6.70
2023-09-08T06:04:23.453Z,5.93
2023-09-08T06:09:28.506Z,6.07
2023-09-08T06:14:33.046Z,5.38
2023-09-08T06:19:38.644Z,4.78
2023-09-08T06:24:43.452Z,5.68
2023-09-08T06:29:47.466Z,6.50
2023-09-08T06:34:54.481Z,6.78
2023-09-08T06:39:58.519Z,6.13
2023-09-08T06:45:05.257Z,5.78
2023-09-08T06:50:11.526Z,4.65
2023-09-08T06:55:17.720Z,5.82
2023-09-08T07:00:22.801Z,5.78
2023-09-08T07:05:28.459Z,6.22
2023-09-08T07:10:32.759Z,5.60
2023-09-08T07:15:36.945Z,5.32
2023-09-08T07:20:42.919Z,5.93
2023-09-08T07:25:48.478Z,5.70
2023-09-08T07:30:53.549Z,5.63
2023-09-08T07:36:00.367Z,6.32
2023-09-08T07:41:04.946Z,5.70
2023-09-08T07:46:10.010Z,5.53
2023-09-08T07:51:15.382Z,5.78
2023-09-08T07:56:19.298Z,5.50
2023-09-08T08:01:23.406Z,5.25
2023-09-08T08:06:29.632Z,5.45
2023-09-08T08:11:33.435Z,5.60
2023-09-08T08:16:37.928Z,4.82
2023-09-08T08:21:44.207Z,4.97
2023-09-08T08:26:48.598Z,5.30
2023-09-08T08:31:52.469Z,5.68
2023-09-08T08:36:57.820Z,5.32
2023-09-08T08:42:09.063Z,5.35
2023-09-08T08:47:14.020Z,5.03
2023-09-08T08:52:20.555Z,5.15
2023-09-08T08:57:24.893Z,5.10
2023-09-08T09:02:31.045Z,4.90
2023-09-08T09:07:36.338Z,5.03
2023-09-08T09:12:41.189Z,5.45
2023-09-08T09:17:46.161Z,4.72
2023-09-08T09:22:51.473Z,4.78
2023-09-08T09:27:56.296Z,5.13
2023-09-08T09:33:04.251Z,4.32
2023-09-08T09:38:10.874Z,4.28
2023-09-08T09:43:17.224Z,4.05
2023-09-08T09:48:24.364Z,4.32
2023-09-08T09:53:31.614Z,4.78
2023-09-08T09:58:36.095Z,4.55
2023-09-08T10:03:41.679Z,3.58
2023-09-08T10:08:47.542Z,3.38
2023-09-08T10:13:56.147Z,4.97
2023-09-08T10:19:02.034Z,4.05
2023-09-08T10:24:17.267Z,5.15
2023-09-08T10:29:21.864Z,4.78
2023-09-08T10:34:27.678Z,6.25
2023-09-08T10:39:37.292Z,5.40
2023-09-08T10:49:44.945Z,5.47
2023-09-08T10:54:52.279Z,5.43
2023-09-08T10:59:57.855Z,5.18
2023-09-08T11:05:02.379Z,5.55
2023-09-08T11:10:10.322Z,5.30
2023-09-08T11:15:14.534Z,4.68
2023-09-08T11:20:19.344Z,4.85
2023-09-08T11:25:25.353Z,5.30
2023-09-08T11:30:29.487Z,5.05
2023-09-08T11:35:34.577Z,5.00
2023-09-08T11:40:40.491Z,4.72
2023-09-08T11:45:45.897Z,4.55
2023-09-08T11:50:49.973Z,4.65
2023-09-08T11:55:55.661Z,4.53
2023-09-08T12:01:00.318Z,4.78
2023-09-08T12:06:04.836Z,5.80
2023-09-08T12:11:11.015Z,5.13
2023-09-08T12:16:23.491Z,4.10
2023-09-08T12:21:27.563Z,4.57
2023-09-08T12:26:33.104Z,4.25
2023-09-08T12:31:37.513Z,4.03
2023-09-08T12:36:47.351Z,4.20
2023-09-08T12:41:55.045Z,4.13
2023-09-08T12:47:00.692Z,4.57
2023-09-08T12:52:04.952Z,4.07
2023-09-08T12:57:10.552Z,3.88
2023-09-08T13:02:15.160Z,4.10
2023-09-08T13:07:19.714Z,3.83
2023-09-08T13:12:24.922Z,3.53
2023-09-08T13:17:28.964Z,4.03
2023-09-08T13:22:32.937Z,4.03
2023-09-08T13:27:38.396Z,3.00
2023-09-08T13:32:43.931Z,4.10
2023-09-08T13:37:48.156Z,4.03
2023-09-08T13:42:53.583Z,3.63
2023-09-08T13:47:58.571Z,3.83
2023-09-08T13:53:41.937Z,3.78
2023-09-08T13:58:50.628Z,4.05
2023-09-08T14:04:03.339Z,3.63
2023-09-08T14:09:41.820Z,3.88
2023-09-08T14:14:35.970Z,3.60
2023-09-08T14:19:39.781Z,4.20
2023-09-08T14:24:43.794Z,3.58
2023-09-08T14:29:53.348Z,3.90
2023-09-08T14:40:02.601Z,3.38
2023-09-08T14:45:09.866Z,3.30
2023-09-08T14:50:15.167Z,3.10
2023-09-08T14:55:20.430Z,3.70
2023-09-08T15:00:25.940Z,3.55
2023-09-08T15:05:30.015Z,2.67
2023-09-08T15:10:34.015Z,2.97
2023-09-08T15:15:39.208Z,3.38
2023-09-08T15:20:43.403Z,3.05
2023-09-08T15:25:53.455Z,3.33
2023-09-08T15:30:58.788Z,3.10
2023-09-08T15:36:03.261Z,3.00
2023-09-08T15:41:21.550Z,3.10
2023-09-08T15:46:27.254Z,3.22
2023-09-08T15:51:31.406Z,2.72
2023-09-08T15:56:35.524Z,3.40
2023-09-08T16:01:41.153Z,3.03
2023-09-08T16:06:45.162Z,3.40
2023-09-08T16:11:49.512Z,3.13
2023-09-08T16:16:54.994Z,2.92
2023-09-08T16:21:58.859Z,2.30
2023-09-08T16:27:04.612Z,2.95
2023-09-08T16:32:12.668Z,3.17
2023-09-08T16:37:16.484Z,2.95
2023-09-08T16:42:21.165Z,3.17
2023-09-08T16:47:27.236Z,2.58
2023-09-08T16:52:31.197Z,2.83
2023-09-08T16:57:35.251Z,2.70
2023-09-08T17:02:40.580Z,3.00
2023-09-08T17:07:44.685Z,3.25
2023-09-08T17:12:48.454Z,2.83
2023-09-08T17:17:53.808Z,3.08
2023-09-08T17:22:57.752Z,3.30
2023-09-08T17:28:01.995Z,3.20
2023-09-08T17:33:07.272Z,3.13
2023-09-08T17:38:11.099Z,3.53
2023-09-08T17:43:15.107Z,3.45
2023-09-08T17:48:20.413Z,3.38
2023-09-08T17:53:24.312Z,3.50
2023-09-08T17:58:28.230Z,3.10
2023-09-08T18:03:33.633Z,3.60
2023-09-08T18:08:37.579Z,3.35
2023-09-08T18:13:41.432Z,3.80
2023-09-08T18:18:48.542Z,3.22
2023-09-08T18:23:52.449Z,4.05
2023-09-08T18:28:56.231Z,3.10
2023-09-08T18:34:01.754Z,3.55
2023-09-08T18:39:06.616Z,4.25
2023-09-08T18:44:10.446Z,3.83
2023-09-08T18:49:15.586Z,4.40
2023-09-08T18:54:19.621Z,4.47
2023-09-08T18:59:23.608Z,4.35
2023-09-08T19:04:29.355Z,4.30
2023-09-08T19:09:33.145Z,4.53
2023-09-08T19:14:36.992Z,4.72
2023-09-08T19:19:42.335Z,4.85
2023-09-08T19:24:46.754Z,4.40
2023-09-08T19:29:51.485Z,5.53
2023-09-08T19:34:56.742Z,5.25
2023-09-08T19:40:01.030Z,5.13
2023-09-08T19:45:05.225Z,5.65
2023-09-08T19:50:11.044Z,5.30
2023-09-08T19:55:14.787Z,4.68
2023-09-08T20:00:18.745Z,5.15
2023-09-08T20:05:23.950Z,4.15
2023-09-08T20:10:27.894Z,4.75
2023-09-08T20:15:31.910Z,5.18
2023-09-08T20:20:37.197Z,6.25
2023-09-08T20:25:42.080Z,6.38
2023-09-08T20:30:46.070Z,7.97
2023-09-08T20:35:51.304Z,8.10
2023-09-08T20:40:55.145Z,8.43
2023-09-08T20:46:06.187Z,8.48
2023-09-08T20:51:13.190Z,7.60
2023-09-08T20:56:17.086Z,8.07
2023-09-08T21:01:21.005Z,6.93
2023-09-08T21:06:27.224Z,7.88
2023-09-08T21:11:31.894Z,7.75
2023-09-08T21:16:35.668Z,7.13
2023-09-08T21:21:40.980Z,6.68
2023-09-08T21:26:44.992Z,6.20
2023-09-08T21:31:51.031Z,6.43
2023-09-08T21:36:56.340Z,5.60
2023-09-08T21:42:00.970Z,6.22
2023-09-08T21:47:10.146Z,5.78
2023-09-08T21:52:24.343Z,7.17
2023-09-08T21:57:35.904Z,5.32
2023-09-08T22:02:39.889Z,6.18
2023-09-08T22:07:45.156Z,6.55
2023-09-08T22:12:49.123Z,5.97
2023-09-08T22:17:53.118Z,6.63
2023-09-08T22:22:58.342Z,6.22
2023-09-08T22:28:02.179Z,6.38
2023-09-08T22:33:06.219Z,6.35
2023-09-08T22:38:11.516Z,6.18
2023-09-08T22:43:15.447Z,6.60
2023-09-08T22:48:20.545Z,7.07
2023-09-08T22:53:25.882Z,8.75
2023-09-08T22:58:39.591Z,10.15
2023-09-08T23:03:43.656Z,8.50
2023-09-08T23:08:49.242Z,8.50
2023-09-08T23:13:53.786Z,7.82
2023-09-08T23:18:58.780Z,7.43
2023-09-08T23:24:04.719Z,7.60
2023-09-08T23:29:08.530Z,8.85
2023-09-08T23:34:13.815Z,8.00
2023-09-08T23:39:19.399Z,7.82
2023-09-08T23:44:23.766Z,6.75
2023-09-08T23:49:27.529Z,7.25
2023-09-08T23:54:32.696Z,6.70
2023-09-08T23:59:36.351Z,6.93
